Bo Algarrobo, Puerto Rico
Current Conditions -  °F | °C
As of 11:50 AM on Friday 19 Dec 2014 (Local Time) from TJBQ Reporting Station
Scattered Clouds Scattered Clouds  
Wind Chill: 82°   Ceiling: Unl
Heat Index: 86°   Visibility: 10mi
Dew Point: 70°   Wind: 18mph
Humidity: 66%   Direction: 100°E
Pressure: 30.02"   Gusts: 24mph
Location:  18.203°N, 67.14°W
Report Text: TJBQ 191550Z 10016G21KT 10SM SCT025 28/21 A3002 RMK RWY08 ATIS N
Loading
Personal Weather Stations






























Interactive Weather Map New forecast layout! Learn more

10-Day Weather Forecast

Advertisements
Track Severe Weather on mobile